createdAt,value
2022-12-11T00:01:47.601Z,100307.06
2022-12-11T00:04:36.353Z,100320.03
2022-12-11T00:07:33.892Z,100313.72
2022-12-11T00:10:13.856Z,100318.44
2022-12-11T00:13:16.026Z,100311.69
2022-12-11T00:16:00.666Z,100309.38
2022-12-11T00:18:46.796Z,100317.88
2022-12-11T00:21:29.810Z,100334.22
2022-12-11T00:24:17.253Z,100324.88
2022-12-11T00:27:03.405Z,100325.66
2022-12-11T00:29:52.625Z,100336.41
2022-12-11T00:32:44.783Z,100332.59
2022-12-11T00:35:18.703Z,100336.84
2022-12-11T00:37:58.944Z,100337.75
2022-12-11T00:40:49.175Z,100339.50
2022-12-11T00:43:36.113Z,100334.97
2022-12-11T00:46:21.364Z,100344.09
2022-12-11T00:49:09.688Z,100340.13
2022-12-11T00:51:54.542Z,100339.03
2022-12-11T00:54:42.712Z,100341.16
2022-12-11T00:57:35.184Z,100331.03
2022-12-11T01:00:24.113Z,100318.13
2022-12-11T01:03:13.931Z,100335.75
2022-12-11T01:06:13.300Z,100320.22
2022-12-11T01:09:22.446Z,100323.13
2022-12-11T01:12:08.967Z,100280.34
2022-12-11T01:14:57.515Z,100318.25
2022-12-11T01:17:44.195Z,100313.19
2022-12-11T01:20:29.804Z,100316.84
2022-12-11T01:23:20.116Z,100296.13
2022-12-11T01:26:12.281Z,100318.84
2022-12-11T01:29:04.861Z,100318.84
2022-12-11T01:32:24.654Z,100315.22
2022-12-11T01:35:03.916Z,100321.78
2022-12-11T01:37:51.377Z,100316.97
2022-12-11T01:40:33.380Z,100286.03
2022-12-11T01:43:13.617Z,100303.03
2022-12-11T01:46:09.079Z,100312.09
2022-12-11T01:48:50.743Z,100306.25
2022-12-11T01:51:44.189Z,100303.63
2022-12-11T01:54:46.975Z,100307.28
2022-12-11T01:57:39.285Z,100299.63
2022-12-11T02:03:28.621Z,100171.44
2022-12-11T02:06:26.660Z,100295.13
2022-12-11T02:09:16.195Z,100297.81
2022-12-11T02:12:24.699Z,100299.41
2022-12-11T02:15:20.980Z,100285.56
2022-12-11T02:18:20.585Z,100275.81
2022-12-11T02:21:06.748Z,100293.22
2022-12-11T02:24:31.354Z,100290.38
2022-12-11T02:27:36.712Z,100288.84
2022-12-11T02:30:26.270Z,100279.00
2022-12-11T02:33:18.142Z,100289.06
2022-12-11T02:36:18.983Z,100286.75
2022-12-11T02:38:58.492Z,100281.06
2022-12-11T02:41:47.775Z,100277.84
2022-12-11T02:44:40.900Z,100184.81
2022-12-11T02:47:52.770Z,100281.91
2022-12-11T02:50:31.891Z,100283.53
2022-12-11T02:53:23.208Z,100263.13
2022-12-11T02:56:10.474Z,100263.69
2022-12-11T02:58:58.632Z,100272.41
2022-12-11T03:01:52.818Z,100240.25
2022-12-11T03:04:52.975Z,100279.25
2022-12-11T03:07:49.362Z,100261.56
2022-12-11T03:10:42.844Z,100224.44
2022-12-11T03:13:22.185Z,100268.81
2022-12-11T03:19:30.000Z,100257.56
2022-12-11T03:22:22.922Z,100253.03
2022-12-11T03:25:02.096Z,100271.00
2022-12-11T03:27:56.333Z,100265.34
2022-12-11T03:30:36.713Z,100262.59
2022-12-11T03:33:12.463Z,100263.69
2022-12-11T03:35:50.541Z,100160.78
2022-12-11T03:38:41.781Z,100265.81
2022-12-11T03:41:22.764Z,100259.09
2022-12-11T03:44:16.154Z,100265.22
2022-12-11T03:47:05.732Z,100262.28
2022-12-11T03:49:50.547Z,100275.84
2022-12-11T03:52:28.310Z,100263.63
2022-12-11T03:55:29.963Z,100260.19
2022-12-11T03:58:18.402Z,100279.53
2022-12-11T04:01:06.053Z,100274.09
2022-12-11T04:03:43.601Z,100290.97
2022-12-11T04:06:20.384Z,100288.63
2022-12-11T04:09:03.394Z,100283.16
2022-12-11T04:12:09.018Z,100291.72
2022-12-11T04:15:09.019Z,100299.25
2022-12-11T04:21:08.323Z,100299.84
2022-12-11T04:24:07.163Z,100277.97
2022-12-11T04:27:00.152Z,100313.94
2022-12-11T04:29:42.122Z,100315.78
2022-12-11T04:32:23.826Z,100323.50
2022-12-11T04:35:14.818Z,100332.53
2022-12-11T04:38:05.874Z,100333.44
2022-12-11T04:40:43.790Z,100335.13
2022-12-11T04:43:45.490Z,100337.41
2022-12-11T04:46:42.103Z,100332.94
2022-12-11T04:52:14.381Z,100329.78
2022-12-11T04:55:01.304Z,100336.28
2022-12-11T04:57:47.151Z,100345.66
2022-12-11T05:00:41.156Z,100349.16
2022-12-11T05:03:35.825Z,100345.16
2022-12-11T05:06:15.423Z,100336.47
2022-12-11T05:08:53.336Z,100356.91
2022-12-11T05:11:37.849Z,100361.19
2022-12-11T05:14:24.797Z,100367.38
2022-12-11T05:17:29.123Z,100372.38
2022-12-11T05:26:10.161Z,100374.25
2022-12-11T05:28:44.916Z,100378.44
2022-12-11T05:31:38.885Z,100351.13
2022-12-11T05:34:33.034Z,100378.34
2022-12-11T05:37:18.014Z,100390.09
2022-12-11T05:39:57.189Z,100394.72
2022-12-11T05:42:43.126Z,100402.09
2022-12-11T05:45:29.254Z,100399.31
2022-12-11T05:48:12.569Z,100406.50
2022-12-11T05:51:11.465Z,100412.25
2022-12-11T05:53:55.604Z,100396.97
2022-12-11T05:56:43.722Z,100422.91
2022-12-11T05:59:36.835Z,100432.31
2022-12-11T06:02:33.673Z,100441.16
2022-12-11T06:05:20.812Z,100300.09
2022-12-11T06:08:05.470Z,100448.22
2022-12-11T06:10:48.165Z,100412.63
2022-12-11T06:13:21.116Z,100455.72
2022-12-11T06:16:06.604Z,100468.31
2022-12-11T06:19:10.843Z,100465.56
2022-12-11T06:27:47.167Z,100478.44
2022-12-11T06:33:27.771Z,100485.81
2022-12-11T06:36:25.869Z,100488.94
2022-12-11T06:42:03.612Z,100490.75
2022-12-11T06:44:42.464Z,100509.47
2022-12-11T06:47:36.263Z,100515.13
2022-12-11T06:53:32.955Z,100465.06
2022-12-11T06:56:13.220Z,100527.44
2022-12-11T06:58:50.558Z,100540.47
2022-12-11T07:04:33.491Z,100533.06
2022-12-11T07:07:30.914Z,100546.41
2022-12-11T07:13:17.697Z,100551.47
2022-12-11T07:16:18.969Z,100558.75
2022-12-11T07:19:12.521Z,100559.81
2022-12-11T07:21:59.140Z,100517.25
2022-12-11T07:24:54.000Z,100557.59
2022-12-11T07:31:00.839Z,100561.84
2022-12-11T07:33:59.232Z,100565.88
2022-12-11T07:36:34.895Z,100560.19
2022-12-11T07:39:18.480Z,100567.63
2022-12-11T07:42:06.943Z,100575.81
2022-12-11T07:44:48.378Z,100583.31
2022-12-11T07:47:46.157Z,100578.53
2022-12-11T07:50:40.780Z,100580.41
2022-12-11T07:53:29.191Z,100566.84
2022-12-11T07:56:18.507Z,100598.19
2022-12-11T07:59:10.565Z,100606.72
2022-12-11T08:01:55.263Z,100604.59
2022-12-11T08:04:44.985Z,100606.91
2022-12-11T08:07:56.136Z,100614.75
2022-12-11T08:10:47.159Z,100609.03
2022-12-11T08:13:51.472Z,100619.63
2022-12-11T08:19:41.104Z,100619.28
2022-12-11T08:22:34.384Z,100631.69
2022-12-11T08:25:38.993Z,100628.72
2022-12-11T08:28:24.848Z,100621.88
2022-12-11T08:31:16.168Z,100632.44
2022-12-11T08:36:50.780Z,100622.56
2022-12-11T08:39:29.605Z,100651.72
2022-12-11T08:42:13.999Z,100661.22
2022-12-11T08:45:01.455Z,100663.75
2022-12-11T08:48:05.790Z,100666.66
2022-12-11T08:51:09.643Z,100667.22
2022-12-11T08:53:56.186Z,100664.06
2022-12-11T08:56:57.729Z,100632.72
2022-12-11T09:00:11.481Z,100669.25
2022-12-11T09:02:49.309Z,100691.06
2022-12-11T09:05:39.809Z,100690.44
2022-12-11T09:08:30.473Z,100699.47
2022-12-11T09:11:13.885Z,100701.63
2022-12-11T09:14:07.225Z,100710.28
2022-12-11T09:17:04.926Z,100707.44
2022-12-11T09:26:09.695Z,100719.50
2022-12-11T09:28:52.942Z,100714.47
2022-12-11T09:31:45.327Z,100711.53
2022-12-11T09:34:33.985Z,100719.84
2022-12-11T09:37:12.689Z,100721.88
2022-12-11T09:40:05.709Z,100720.06
2022-12-11T09:43:02.191Z,100726.56
2022-12-11T09:45:47.326Z,100720.22
2022-12-11T09:48:32.846Z,100724.09
2022-12-11T09:58:36.303Z,100739.25
2022-12-11T10:01:36.323Z,100752.25
2022-12-11T10:05:02.988Z,100748.16
2022-12-11T10:08:15.026Z,100754.63
2022-12-11T10:11:22.999Z,100756.34
2022-12-11T10:14:15.903Z,100755.63
2022-12-11T10:16:54.764Z,100764.22
2022-12-11T10:19:53.576Z,100762.22
2022-12-11T10:22:53.049Z,100769.34
2022-12-11T10:26:18.989Z,100781.88
2022-12-11T10:28:57.065Z,100782.25
2022-12-11T10:35:08.685Z,100793.06
2022-12-11T10:38:05.186Z,100788.25
2022-12-11T10:41:05.580Z,100804.34
2022-12-11T10:43:54.873Z,100789.44
2022-12-11T10:47:12.482Z,100804.84
2022-12-11T10:53:18.625Z,100806.66
2022-12-11T10:56:09.126Z,100803.78
2022-12-11T10:58:59.593Z,100798.69
2022-12-11T11:01:39.129Z,100804.84
2022-12-11T11:10:52.049Z,100830.75
2022-12-11T11:16:37.908Z,100843.44
2022-12-11T11:19:53.452Z,100815.88
2022-12-11T11:23:00.111Z,100840.81
2022-12-11T11:26:00.268Z,100846.69
2022-12-11T11:28:41.705Z,100858.53
2022-12-11T11:31:34.247Z,100841.06
2022-12-11T11:34:30.901Z,100793.19
2022-12-11T11:37:20.481Z,100861.84
2022-12-11T11:40:10.518Z,100858.25
2022-12-11T11:42:52.421Z,100868.84
2022-12-11T11:45:41.509Z,100892.75
2022-12-11T11:48:40.650Z,100879.47
2022-12-11T11:51:41.200Z,100883.25
2022-12-11T11:54:44.909Z,100880.75
2022-12-11T12:00:57.227Z,100912.19
2022-12-11T12:03:46.447Z,100915.25
2022-12-11T12:07:05.793Z,100918.19
2022-12-11T12:10:11.814Z,100901.44
2022-12-11T12:13:14.326Z,100927.72
2022-12-11T12:16:50.438Z,100846.06
2022-12-11T12:19:47.193Z,100935.78
2022-12-11T12:22:45.854Z,100954.41
2022-12-11T12:25:32.697Z,100958.41
2022-12-11T12:31:51.645Z,100966.44
2022-12-11T12:34:57.529Z,100971.97
2022-12-11T12:38:03.306Z,100981.81
2022-12-11T12:40:46.914Z,100984.44
2022-12-11T12:49:49.548Z,100980.50
2022-12-11T12:52:37.479Z,100985.78
2022-12-11T12:58:41.974Z,100960.28
2022-12-11T13:01:31.023Z,100999.22
2022-12-11T13:04:47.416Z,100996.31
2022-12-11T13:07:44.449Z,101004.66
2022-12-11T13:10:42.764Z,101019.19
2022-12-11T13:13:41.041Z,101021.88
2022-12-11T13:16:37.352Z,101023.38
2022-12-11T13:19:42.525Z,101015.97
2022-12-11T13:22:41.431Z,101025.38
2022-12-11T13:25:55.613Z,101021.53
2022-12-11T13:29:13.408Z,101019.13
2022-12-11T13:32:11.281Z,101012.59
2022-12-11T13:35:11.203Z,101010.91
2022-12-11T13:38:03.703Z,100956.44
2022-12-11T13:41:14.471Z,101015.72
2022-12-11T13:44:07.395Z,101015.19
2022-12-11T13:49:43.044Z,101037.03
2022-12-11T13:52:37.650Z,101026.97
2022-12-11T13:55:42.032Z,101031.44
2022-12-11T13:58:36.242Z,101052.38
2022-12-11T14:01:30.773Z,101055.38
2022-12-11T14:04:33.708Z,101050.13
2022-12-11T14:10:22.272Z,101045.00
2022-12-11T14:13:11.407Z,101052.44
2022-12-11T14:16:12.155Z,101058.63
2022-12-11T14:18:58.228Z,101057.19
2022-12-11T14:21:39.737Z,101057.06
2022-12-11T14:24:25.917Z,101055.19
2022-12-11T14:27:37.019Z,101063.47
2022-12-11T14:30:29.285Z,101067.59
2022-12-11T14:33:25.939Z,101069.94
2022-12-11T14:36:17.686Z,101073.78
2022-12-11T14:39:07.832Z,101070.69
2022-12-11T14:42:00.752Z,101076.03
2022-12-11T14:44:58.796Z,101013.88
2022-12-11T14:48:01.926Z,101084.41
2022-12-11T14:50:58.125Z,101089.22
2022-12-11T14:53:54.323Z,101093.06
2022-12-11T14:56:35.077Z,101079.75
2022-12-11T14:59:33.213Z,101098.44
2022-12-11T15:02:37.745Z,101095.81
2022-12-11T15:05:40.304Z,101076.13
2022-12-11T15:08:57.428Z,101091.44
2022-12-11T15:11:43.586Z,101094.41
2022-12-11T15:14:27.878Z,101092.56
2022-12-11T15:17:12.938Z,101102.00
2022-12-11T15:23:12.807Z,101089.66
2022-12-11T15:26:17.663Z,101107.41
2022-12-11T15:29:16.743Z,101101.50
2022-12-11T15:32:12.793Z,101101.78
2022-12-11T15:34:58.490Z,101110.38
2022-12-11T15:37:40.215Z,101103.25
2022-12-11T15:40:30.060Z,101122.84
2022-12-11T15:43:47.548Z,101130.91
2022-12-11T15:46:29.054Z,101136.22
2022-12-11T15:49:23.224Z,101118.38
2022-12-11T15:52:03.404Z,101136.22
2022-12-11T15:54:56.351Z,101144.47
2022-12-11T15:57:34.652Z,101142.47
2022-12-11T16:00:29.053Z,101149.31
2022-12-11T16:03:16.047Z,101138.38
2022-12-11T16:06:10.684Z,101144.25
2022-12-11T16:12:08.741Z,101138.19
2022-12-11T16:14:54.686Z,101159.22
2022-12-11T16:17:54.814Z,101155.38
2022-12-11T16:20:44.807Z,101150.97
2022-12-11T16:23:29.325Z,101146.81
2022-12-11T16:26:21.272Z,101131.13
2022-12-11T16:29:16.883Z,101136.78
2022-12-11T16:31:56.278Z,101160.16
2022-12-11T16:35:11.564Z,101159.50
2022-12-11T16:38:20.409Z,101153.72
2022-12-11T16:41:14.735Z,101180.19
2022-12-11T16:44:01.908Z,101184.19
2022-12-11T16:46:56.581Z,101185.97
2022-12-11T16:49:51.018Z,101179.13
2022-12-11T16:53:01.763Z,101180.66
2022-12-11T16:55:40.211Z,101187.53
2022-12-11T16:58:20.913Z,101192.44
2022-12-11T17:04:32.738Z,101207.50
2022-12-11T17:07:17.790Z,101210.53
2022-12-11T17:10:12.809Z,101212.09
2022-12-11T17:13:07.648Z,101201.63
2022-12-11T17:16:01.548Z,101151.09
2022-12-11T17:18:39.939Z,101222.31
2022-12-11T17:21:59.434Z,101211.75
2022-12-11T17:24:53.914Z,101203.88
2022-12-11T17:27:58.122Z,101226.09
2022-12-11T17:30:37.951Z,101228.03
2022-12-11T17:33:26.109Z,101167.44
2022-12-11T17:36:10.205Z,101231.44
2022-12-11T17:38:58.465Z,101222.59
2022-12-11T17:41:47.140Z,101221.69
2022-12-11T17:45:01.186Z,101211.66
2022-12-11T17:47:47.575Z,101222.50
2022-12-11T17:50:33.116Z,101210.75
2022-12-11T17:53:19.882Z,101227.69
2022-12-11T17:56:06.036Z,101230.53
2022-12-11T17:58:56.805Z,101238.81
2022-12-11T18:01:39.262Z,101240.44
2022-12-11T18:04:27.035Z,101197.97
2022-12-11T18:07:26.603Z,101248.84
2022-12-11T18:10:23.686Z,101263.19
2022-12-11T18:13:31.400Z,101265.59
2022-12-11T18:16:46.665Z,101241.78
2022-12-11T18:19:34.889Z,101263.69
2022-12-11T18:22:17.643Z,101256.75
2022-12-11T18:24:58.273Z,101269.56
2022-12-11T18:27:38.746Z,101279.34
2022-12-11T18:30:31.162Z,101248.69
2022-12-11T18:33:25.823Z,101275.63
2022-12-11T18:36:12.191Z,101271.28
2022-12-11T18:39:00.039Z,101267.22
2022-12-11T18:41:36.536Z,101267.22
2022-12-11T18:44:23.204Z,101249.16
2022-12-11T18:47:17.350Z,101270.63
2022-12-11T18:50:11.835Z,101277.44
2022-12-11T18:55:45.119Z,101294.28
2022-12-11T18:58:40.141Z,101285.00
2022-12-11T19:01:34.901Z,101274.97
2022-12-11T19:04:19.187Z,101250.69
2022-12-11T19:07:18.797Z,101282.19
2022-12-11T19:10:17.481Z,101283.97
2022-12-11T19:13:05.225Z,101284.88
2022-12-11T19:15:43.496Z,101280.75
2022-12-11T19:18:38.227Z,101281.09
2022-12-11T19:21:23.488Z,101277.72
2022-12-11T19:24:16.225Z,101287.50
2022-12-11T19:26:53.280Z,101280.06
2022-12-11T19:29:28.278Z,101293.75
2022-12-11T19:32:05.073Z,101301.88
2022-12-11T19:34:43.394Z,101304.38
2022-12-11T19:37:46.189Z,101312.63
2022-12-11T19:40:57.036Z,101308.41
2022-12-11T19:43:37.408Z,101316.66
2022-12-11T19:46:23.067Z,101306.78
2022-12-11T19:49:06.559Z,101321.38
2022-12-11T19:52:22.279Z,101325.09
2022-12-11T19:55:25.319Z,101321.88
2022-12-11T19:58:34.368Z,101331.25
2022-12-11T20:01:38.310Z,101329.06
2022-12-11T20:07:26.097Z,101313.97
2022-12-11T20:10:06.248Z,101334.88
2022-12-11T20:12:43.818Z,101328.63
2022-12-11T20:15:55.105Z,101353.44
2022-12-11T20:18:53.061Z,101348.22
2022-12-11T20:21:52.249Z,101361.38
2022-12-11T20:27:34.023Z,101361.19
2022-12-11T20:30:19.024Z,101362.22
2022-12-11T20:33:31.854Z,101362.41
2022-12-11T20:36:49.295Z,101362.81
2022-12-11T20:39:33.257Z,101367.78
2022-12-11T20:42:28.771Z,101363.59
2022-12-11T20:45:17.581Z,101384.16
2022-12-11T20:47:54.629Z,101389.50
2022-12-11T20:50:43.250Z,101375.19
2022-12-11T20:53:36.019Z,101368.34
2022-12-11T20:56:23.389Z,101365.06
2022-12-11T21:02:52.575Z,101372.69
2022-12-11T21:05:54.091Z,101379.34
2022-12-11T21:08:48.265Z,101385.56
2022-12-11T21:11:30.998Z,101386.47
2022-12-11T21:14:12.268Z,101407.03
2022-12-11T21:16:56.002Z,101399.81
2022-12-11T21:19:58.824Z,101304.97
2022-12-11T21:22:37.100Z,101392.44
2022-12-11T21:25:38.691Z,101402.13
2022-12-11T21:28:30.596Z,101397.13
2022-12-11T21:31:29.952Z,101399.66
2022-12-11T21:34:09.231Z,101407.84
2022-12-11T21:37:03.973Z,101417.38
2022-12-11T21:42:51.126Z,101406.03
2022-12-11T21:46:00.497Z,101400.00
2022-12-11T21:48:46.580Z,101401.81
2022-12-11T21:51:47.240Z,101403.06
2022-12-11T21:54:28.599Z,101408.38
2022-12-11T21:57:43.434Z,101400.34
2022-12-11T22:00:41.335Z,101390.75
2022-12-11T22:06:14.548Z,101414.72
2022-12-11T22:09:01.799Z,101417.81
2022-12-11T22:11:47.394Z,101404.75
2022-12-11T22:17:39.914Z,101428.41
2022-12-11T22:20:26.869Z,101451.34
2022-12-11T22:23:04.979Z,101468.06
2022-12-11T22:29:01.781Z,101497.22
2022-12-11T22:31:47.761Z,101498.97
2022-12-11T22:34:41.737Z,101486.25
2022-12-11T22:37:26.205Z,101491.16
2022-12-11T22:40:07.790Z,101494.72
2022-12-11T22:42:57.885Z,101496.16
2022-12-11T22:45:41.917Z,101489.44
2022-12-11T22:48:18.676Z,101477.38
2022-12-11T22:57:02.035Z,101469.97
2022-12-11T22:59:51.054Z,101475.53
2022-12-11T23:02:53.952Z,101475.81
2022-12-11T23:05:35.029Z,101467.53
2022-12-11T23:08:36.643Z,101473.69
2022-12-11T23:11:29.393Z,101361.88
2022-12-11T23:14:15.351Z,101464.78
2022-12-11T23:17:16.398Z,101470.91
2022-12-11T23:19:55.388Z,101451.16
2022-12-11T23:22:58.719Z,101477.81
2022-12-11T23:25:45.093Z,101486.69
2022-12-11T23:28:39.526Z,101497.38
2022-12-11T23:31:30.477Z,101350.84
2022-12-11T23:34:12.662Z,101496.63
2022-12-11T23:36:53.117Z,101496.50
2022-12-11T23:39:34.210Z,101508.16
2022-12-11T23:42:43.772Z,101503.47
2022-12-11T23:45:23.960Z,101504.09
2022-12-11T23:48:19.351Z,101507.50
2022-12-11T23:51:16.519Z,101489.00
2022-12-11T23:54:11.291Z,101499.94
2022-12-11T23:56:51.966Z,101519.22
2022-12-11T23:59:43.528Z,101518.75
